sensor_id;sensor_type;location;lat;lon;timestamp;P1;durP1;ratioP1;P2;durP2;ratioP2
76320;SDS011;65132;52.088;5.402;2023-03-23T00:02:16;4.45;;;2.05;;
76320;SDS011;65132;52.088;5.402;2023-03-23T00:04:41;10.10;;;3.75;;
76320;SDS011;65132;52.088;5.402;2023-03-23T00:07:06;7.22;;;2.53;;
76320;SDS011;65132;52.088;5.402;2023-03-23T00:09:32;4.50;;;1.90;;
76320;SDS011;65132;52.088;5.402;2023-03-23T00:11:57;3.73;;;2.23;;
76320;SDS011;65132;52.088;5.402;2023-03-23T00:14:23;7.73;;;2.23;;
76320;SDS011;65132;52.088;5.402;2023-03-23T00:16:48;7.25;;;2.78;;
76320;SDS011;65132;52.088;5.402;2023-03-23T00:19:14;8.73;;;2.80;;
76320;SDS011;65132;52.088;5.402;2023-03-23T00:21:40;5.22;;;2.17;;
76320;SDS011;65132;52.088;5.402;2023-03-23T00:24:10;3.53;;;2.05;;
76320;SDS011;65132;52.088;5.402;2023-03-23T00:26:39;4.93;;;2.42;;
76320;SDS011;65132;52.088;5.402;2023-03-23T00:29:26;4.47;;;2.05;;
76320;SDS011;65132;52.088;5.402;2023-03-23T00:31:51;4.28;;;1.50;;
76320;SDS011;65132;52.088;5.402;2023-03-23T00:34:20;5.00;;;2.28;;
76320;SDS011;65132;52.088;5.402;2023-03-23T00:36:47;5.38;;;1.95;;
76320;SDS011;65132;52.088;5.402;2023-03-23T00:39:14;6.75;;;2.60;;
76320;SDS011;65132;52.088;5.402;2023-03-23T00:41:45;4.80;;;1.95;;
76320;SDS011;65132;52.088;5.402;2023-03-23T00:44:11;5.00;;;1.95;;
76320;SDS011;65132;52.088;5.402;2023-03-23T00:46:37;6.00;;;1.95;;
76320;SDS011;65132;52.088;5.402;2023-03-23T00:49:03;5.70;;;1.90;;
76320;SDS011;65132;52.088;5.402;2023-03-23T00:51:28;7.00;;;2.92;;
76320;SDS011;65132;52.088;5.402;2023-03-23T00:53:53;6.70;;;2.33;;
76320;SDS011;65132;52.088;5.402;2023-03-23T00:56:19;5.72;;;2.22;;
76320;SDS011;65132;52.088;5.402;2023-03-23T00:58:44;5.35;;;1.95;;
76320;SDS011;65132;52.088;5.402;2023-03-23T01:01:09;2.90;;;1.40;;
76320;SDS011;65132;52.088;5.402;2023-03-23T01:03:35;3.35;;;1.35;;
76320;SDS011;65132;52.088;5.402;2023-03-23T01:06:05;5.43;;;1.98;;
76320;SDS011;65132;52.088;5.402;2023-03-23T01:08:31;3.75;;;1.98;;
76320;SDS011;65132;52.088;5.402;2023-03-23T01:11:06;3.72;;;1.70;;
76320;SDS011;65132;52.088;5.402;2023-03-23T01:13:31;3.63;;;1.75;;
76320;SDS011;65132;52.088;5.402;2023-03-23T01:15:57;4.07;;;1.55;;
76320;SDS011;65132;52.088;5.402;2023-03-23T01:18:22;5.10;;;1.70;;
76320;SDS011;65132;52.088;5.402;2023-03-23T01:20:48;4.43;;;2.35;;
76320;SDS011;65132;52.088;5.402;2023-03-23T01:23:13;3.90;;;1.57;;
76320;SDS011;65132;52.088;5.402;2023-03-23T01:25:38;4.40;;;1.73;;
76320;SDS011;65132;52.088;5.402;2023-03-23T01:28:04;5.07;;;1.90;;
76320;SDS011;65132;52.088;5.402;2023-03-23T01:30:29;4.15;;;1.77;;
76320;SDS011;65132;52.088;5.402;2023-03-23T01:32:57;4.28;;;1.60;;
76320;SDS011;65132;52.088;5.402;2023-03-23T01:35:22;5.18;;;1.70;;
76320;SDS011;65132;52.088;5.402;2023-03-23T01:37:48;3.70;;;1.40;;
76320;SDS011;65132;52.088;5.402;2023-03-23T01:40:14;4.00;;;1.05;;
76320;SDS011;65132;52.088;5.402;2023-03-23T01:42:40;4.38;;;2.03;;
76320;SDS011;65132;52.088;5.402;2023-03-23T01:45:26;3.60;;;1.38;;
76320;SDS011;65132;52.088;5.402;2023-03-23T01:47:57;4.47;;;1.30;;
76320;SDS011;65132;52.088;5.402;2023-03-23T01:50:31;3.67;;;1.55;;
76320;SDS011;65132;52.088;5.402;2023-03-23T01:53:02;6.05;;;2.03;;
76320;SDS011;65132;52.088;5.402;2023-03-23T01:55:31;3.92;;;1.50;;
76320;SDS011;65132;52.088;5.402;2023-03-23T01:57:56;2.85;;;1.17;;
76320;SDS011;65132;52.088;5.402;2023-03-23T02:00:24;3.63;;;1.20;;
76320;SDS011;65132;52.088;5.402;2023-03-23T02:02:50;4.15;;;2.00;;
76320;SDS011;65132;52.088;5.402;2023-03-23T02:05:23;5.00;;;1.40;;
76320;SDS011;65132;52.088;5.402;2023-03-23T02:07:53;4.45;;;1.88;;
76320;SDS011;65132;52.088;5.402;2023-03-23T02:10:21;4.50;;;1.58;;
76320;SDS011;65132;52.088;5.402;2023-03-23T02:12:47;7.37;;;2.20;;
76320;SDS011;65132;52.088;5.402;2023-03-23T02:15:12;6.72;;;2.22;;
76320;SDS011;65132;52.088;5.402;2023-03-23T02:20:39;4.25;;;1.92;;
76320;SDS011;65132;52.088;5.402;2023-03-23T02:37:03;4.63;;;1.85;;
76320;SDS011;65132;52.088;5.402;2023-03-23T02:39:37;3.92;;;2.00;;
76320;SDS011;65132;52.088;5.402;2023-03-23T02:42:16;7.53;;;2.45;;
76320;SDS011;65132;52.088;5.402;2023-03-23T02:44:45;7.22;;;2.15;;
76320;SDS011;65132;52.088;5.402;2023-03-23T02:47:14;5.35;;;2.45;;
76320;SDS011;65132;52.088;5.402;2023-03-23T02:49:44;5.35;;;2.50;;
76320;SDS011;65132;52.088;5.402;2023-03-23T02:52:12;3.90;;;1.92;;
76320;SDS011;65132;52.088;5.402;2023-03-23T02:54:46;3.25;;;1.67;;
76320;SDS011;65132;52.088;5.402;2023-03-23T02:57:13;4.47;;;2.13;;
76320;SDS011;65132;52.088;5.402;2023-03-23T02:59:39;4.35;;;1.98;;
76320;SDS011;65132;52.088;5.402;2023-03-23T03:04:36;4.50;;;2.08;;
76320;SDS011;65132;52.088;5.402;2023-03-23T03:09:44;5.13;;;2.08;;
76320;SDS011;65132;52.088;5.402;2023-03-23T03:12:23;4.20;;;2.13;;
76320;SDS011;65132;52.088;5.402;2023-03-23T03:20:57;5.53;;;2.20;;
76320;SDS011;65132;52.088;5.402;2023-03-23T03:23:27;5.00;;;2.20;;
76320;SDS011;65132;52.088;5.402;2023-03-23T03:25:54;4.78;;;1.98;;
76320;SDS011;65132;52.088;5.402;2023-03-23T03:28:22;6.82;;;2.10;;
76320;SDS011;65132;52.088;5.402;2023-03-23T03:30:49;6.63;;;1.80;;
76320;SDS011;65132;52.088;5.402;2023-03-23T03:33:19;5.93;;;2.13;;
76320;SDS011;65132;52.088;5.402;2023-03-23T03:35:51;6.00;;;1.77;;
76320;SDS011;65132;52.088;5.402;2023-03-23T03:38:22;4.97;;;1.67;;
76320;SDS011;65132;52.088;5.402;2023-03-23T03:40:48;6.75;;;1.90;;
76320;SDS011;65132;52.088;5.402;2023-03-23T03:43:13;2.25;;;0.90;;
76320;SDS011;65132;52.088;5.402;2023-03-23T03:45:41;3.63;;;0.90;;
76320;SDS011;65132;52.088;5.402;2023-03-23T03:48:06;4.27;;;1.03;;
76320;SDS011;65132;52.088;5.402;2023-03-23T03:50:32;6.18;;;1.38;;
76320;SDS011;65132;52.088;5.402;2023-03-23T03:52:58;2.75;;;1.17;;
76320;SDS011;65132;52.088;5.402;2023-03-23T03:55:23;4.43;;;1.55;;
76320;SDS011;65132;52.088;5.402;2023-03-23T03:57:49;5.13;;;1.90;;
76320;SDS011;65132;52.088;5.402;2023-03-23T04:00:14;5.32;;;1.90;;
76320;SDS011;65132;52.088;5.402;2023-03-23T04:02:44;5.28;;;1.10;;
76320;SDS011;65132;52.088;5.402;2023-03-23T04:05:11;3.97;;;1.50;;
76320;SDS011;65132;52.088;5.402;2023-03-23T04:07:36;3.83;;;1.60;;
76320;SDS011;65132;52.088;5.402;2023-03-23T04:10:02;6.90;;;1.45;;
76320;SDS011;65132;52.088;5.402;2023-03-23T04:12:27;3.20;;;1.30;;
76320;SDS011;65132;52.088;5.402;2023-03-23T04:14:53;6.22;;;1.90;;
76320;SDS011;65132;52.088;5.402;2023-03-23T04:17:18;3.80;;;1.40;;
76320;SDS011;65132;52.088;5.402;2023-03-23T04:19:46;7.60;;;1.25;;
76320;SDS011;65132;52.088;5.402;2023-03-23T04:22:11;2.08;;;0.90;;
76320;SDS011;65132;52.088;5.402;2023-03-23T04:24:39;5.43;;;1.50;;
76320;SDS011;65132;52.088;5.402;2023-03-23T04:27:04;3.80;;;1.38;;
76320;SDS011;65132;52.088;5.402;2023-03-23T04:29:30;3.40;;;1.15;;
76320;SDS011;65132;52.088;5.402;2023-03-23T04:31:55;5.13;;;1.30;;
76320;SDS011;65132;52.088;5.402;2023-03-23T04:34:21;3.42;;;0.93;;
76320;SDS011;65132;52.088;5.402;2023-03-23T04:36:47;6.28;;;1.77;;
76320;SDS011;65132;52.088;5.402;2023-03-23T04:39:13;3.70;;;0.88;;
76320;SDS011;65132;52.088;5.402;2023-03-23T04:41:38;2.17;;;0.55;;
76320;SDS011;65132;52.088;5.402;2023-03-23T04:44:07;4.53;;;0.65;;
76320;SDS011;65132;52.088;5.402;2023-03-23T04:46:33;3.33;;;1.27;;
76320;SDS011;65132;52.088;5.402;2023-03-23T04:48:59;3.25;;;0.73;;
76320;SDS011;65132;52.088;5.402;2023-03-23T04:51:25;2.40;;;0.63;;
76320;SDS011;65132;52.088;5.402;2023-03-23T04:53:54;3.85;;;0.93;;
76320;SDS011;65132;52.088;5.402;2023-03-23T04:56:20;4.80;;;0.88;;
76320;SDS011;65132;52.088;5.402;2023-03-23T04:58:45;4.53;;;1.30;;
76320;SDS011;65132;52.088;5.402;2023-03-23T05:01:15;4.20;;;0.85;;
76320;SDS011;65132;52.088;5.402;2023-03-23T05:03:40;5.20;;;0.75;;
76320;SDS011;65132;52.088;5.402;2023-03-23T05:06:06;5.72;;;0.68;;
76320;SDS011;65132;52.088;5.402;2023-03-23T05:08:32;4.85;;;0.65;;
76320;SDS011;65132;52.088;5.402;2023-03-23T05:10:58;3.28;;;0.77;;
76320;SDS011;65132;52.088;5.402;2023-03-23T05:13:24;3.00;;;0.45;;
76320;SDS011;65132;52.088;5.402;2023-03-23T05:15:51;4.65;;;0.50;;
76320;SDS011;65132;52.088;5.402;2023-03-23T05:21:00;5.10;;;0.80;;
76320;SDS011;65132;52.088;5.402;2023-03-23T05:23:29;7.93;;;1.08;;
76320;SDS011;65132;52.088;5.402;2023-03-23T05:25:57;5.60;;;1.58;;
76320;SDS011;65132;52.088;5.402;2023-03-23T05:28:23;5.70;;;1.10;;
76320;SDS011;65132;52.088;5.402;2023-03-23T05:30:48;6.85;;;1.08;;
76320;SDS011;65132;52.088;5.402;2023-03-23T05:33:14;4.85;;;1.10;;
76320;SDS011;65132;52.088;5.402;2023-03-23T05:35:39;5.18;;;1.08;;
76320;SDS011;65132;52.088;5.402;2023-03-23T05:38:05;10.23;;;1.00;;
76320;SDS011;65132;52.088;5.402;2023-03-23T05:40:33;8.95;;;0.98;;
76320;SDS011;65132;52.088;5.402;2023-03-23T05:42:58;5.50;;;0.70;;
76320;SDS011;65132;52.088;5.402;2023-03-23T05:45:24;8.27;;;0.97;;
76320;SDS011;65132;52.088;5.402;2023-03-23T05:47:52;4.18;;;0.95;;
76320;SDS011;65132;52.088;5.402;2023-03-23T05:50:17;5.28;;;0.77;;
76320;SDS011;65132;52.088;5.402;2023-03-23T05:52:43;6.70;;;0.88;;
76320;SDS011;65132;52.088;5.402;2023-03-23T05:55:08;4.38;;;0.63;;
76320;SDS011;65132;52.088;5.402;2023-03-23T05:57:35;6.55;;;0.85;;
76320;SDS011;65132;52.088;5.402;2023-03-23T06:00:00;4.07;;;0.77;;
76320;SDS011;65132;52.088;5.402;2023-03-23T06:02:26;4.07;;;0.80;;
76320;SDS011;65132;52.088;5.402;2023-03-23T06:04:51;4.32;;;1.10;;
76320;SDS011;65132;52.088;5.402;2023-03-23T06:07:16;6.72;;;1.08;;
76320;SDS011;65132;52.088;5.402;2023-03-23T06:09:42;6.25;;;0.85;;
76320;SDS011;65132;52.088;5.402;2023-03-23T06:16:29;3.03;;;0.73;;
76320;SDS011;65132;52.088;5.402;2023-03-23T06:19:53;6.15;;;1.02;;
76320;SDS011;65132;52.088;5.402;2023-03-23T06:23:17;6.15;;;1.10;;
76320;SDS011;65132;52.088;5.402;2023-03-23T06:26:43;6.25;;;1.08;;
76320;SDS011;65132;52.088;5.402;2023-03-23T06:30:07;6.70;;;0.93;;
76320;SDS011;65132;52.088;5.402;2023-03-23T06:33:32;7.03;;;1.40;;
76320;SDS011;65132;52.088;5.402;2023-03-23T06:36:56;7.55;;;1.35;;
76320;SDS011;65132;52.088;5.402;2023-03-23T06:40:21;4.32;;;0.90;;
76320;SDS011;65132;52.088;5.402;2023-03-23T06:43:50;5.60;;;0.80;;
76320;SDS011;65132;52.088;5.402;2023-03-23T06:47:14;6.55;;;1.20;;
76320;SDS011;65132;52.088;5.402;2023-03-23T06:50:43;5.35;;;0.80;;
76320;SDS011;65132;52.088;5.402;2023-03-23T06:54:07;4.13;;;0.85;;
76320;SDS011;65132;52.088;5.402;2023-03-23T06:57:31;6.95;;;1.20;;
76320;SDS011;65132;52.088;5.402;2023-03-23T07:00:58;4.30;;;0.88;;
76320;SDS011;65132;52.088;5.402;2023-03-23T07:04:24;5.20;;;0.98;;
76320;SDS011;65132;52.088;5.402;2023-03-23T07:07:53;6.47;;;1.17;;
76320;SDS011;65132;52.088;5.402;2023-03-23T07:11:17;5.85;;;1.00;;
76320;SDS011;65132;52.088;5.402;2023-03-23T07:14:42;9.13;;;1.38;;
76320;SDS011;65132;52.088;5.402;2023-03-23T07:18:06;4.03;;;1.10;;
76320;SDS011;65132;52.088;5.402;2023-03-23T07:21:32;4.88;;;0.45;;
76320;SDS011;65132;52.088;5.402;2023-03-23T07:24:56;2.53;;;0.88;;
76320;SDS011;65132;52.088;5.402;2023-03-23T07:31:44;4.85;;;0.90;;
76320;SDS011;65132;52.088;5.402;2023-03-23T07:35:08;5.15;;;0.98;;
76320;SDS011;65132;52.088;5.402;2023-03-23T07:38:32;9.10;;;0.70;;
76320;SDS011;65132;52.088;5.402;2023-03-23T07:45:21;3.80;;;0.77;;
76320;SDS011;65132;52.088;5.402;2023-03-23T07:48:46;6.57;;;0.70;;
76320;SDS011;65132;52.088;5.402;2023-03-23T07:52:10;4.05;;;1.02;;
76320;SDS011;65132;52.088;5.402;2023-03-23T07:55:34;4.35;;;0.80;;
76320;SDS011;65132;52.088;5.402;2023-03-23T07:58:59;6.13;;;1.23;;
76320;SDS011;65132;52.088;5.402;2023-03-23T08:02:24;3.72;;;0.80;;
76320;SDS011;65132;52.088;5.402;2023-03-23T08:05:48;7.13;;;1.52;;
76320;SDS011;65132;52.088;5.402;2023-03-23T08:09:13;10.23;;;1.70;;
76320;SDS011;65132;52.088;5.402;2023-03-23T08:12:41;6.97;;;1.25;;
76320;SDS011;65132;52.088;5.402;2023-03-23T08:16:09;8.50;;;1.55;;
76320;SDS011;65132;52.088;5.402;2023-03-23T08:19:33;5.22;;;1.40;;
76320;SDS011;65132;52.088;5.402;2023-03-23T08:22:58;6.05;;;1.20;;
76320;SDS011;65132;52.088;5.402;2023-03-23T08:26:24;4.22;;;1.85;;
76320;SDS011;65132;52.088;5.402;2023-03-23T08:29:48;4.47;;;1.25;;
76320;SDS011;65132;52.088;5.402;2023-03-23T08:33:12;7.95;;;1.38;;
76320;SDS011;65132;52.088;5.402;2023-03-23T08:36:36;8.10;;;0.82;;
76320;SDS011;65132;52.088;5.402;2023-03-23T08:40:00;7.38;;;1.75;;
76320;SDS011;65132;52.088;5.402;2023-03-23T08:43:26;4.88;;;1.00;;
76320;SDS011;65132;52.088;5.402;2023-03-23T08:50:15;7.47;;;1.13;;
76320;SDS011;65132;52.088;5.402;2023-03-23T08:53:39;5.25;;;1.00;;
76320;SDS011;65132;52.088;5.402;2023-03-23T08:57:03;4.88;;;0.90;;
76320;SDS011;65132;52.088;5.402;2023-03-23T09:00:29;6.75;;;1.10;;
76320;SDS011;65132;52.088;5.402;2023-03-23T09:03:53;7.38;;;0.93;;
76320;SDS011;65132;52.088;5.402;2023-03-23T09:07:17;5.25;;;1.10;;
76320;SDS011;65132;52.088;5.402;2023-03-23T09:10:42;6.97;;;1.35;;
76320;SDS011;65132;52.088;5.402;2023-03-23T09:14:06;4.10;;;1.10;;
76320;SDS011;65132;52.088;5.402;2023-03-23T09:17:33;6.70;;;1.23;;
76320;SDS011;65132;52.088;5.402;2023-03-23T09:20:58;4.07;;;1.00;;
76320;SDS011;65132;52.088;5.402;2023-03-23T09:24:25;5.00;;;0.90;;
76320;SDS011;65132;52.088;5.402;2023-03-23T09:27:54;2.72;;;0.73;;
76320;SDS011;65132;52.088;5.402;2023-03-23T09:31:25;4.93;;;1.85;;
76320;SDS011;65132;52.088;5.402;2023-03-23T09:34:52;8.18;;;1.00;;
76320;SDS011;65132;52.088;5.402;2023-03-23T09:40:48;4.50;;;0.70;;
76320;SDS011;65132;52.088;5.402;2023-03-23T09:46:02;6.05;;;1.85;;
76320;SDS011;65132;52.088;5.402;2023-03-23T09:48:53;8.65;;;1.10;;
76320;SDS011;65132;52.088;5.402;2023-03-23T09:51:41;9.30;;;1.60;;
76320;SDS011;65132;52.088;5.402;2023-03-23T09:54:22;8.02;;;1.63;;
76320;SDS011;65132;52.088;5.402;2023-03-23T09:56:51;6.65;;;1.52;;
76320;SDS011;65132;52.088;5.402;2023-03-23T10:01:50;5.05;;;0.82;;
76320;SDS011;65132;52.088;5.402;2023-03-23T10:04:56;4.07;;;1.10;;
76320;SDS011;65132;52.088;5.402;2023-03-23T10:07:20;13.05;;;1.38;;
76320;SDS011;65132;52.088;5.402;2023-03-23T10:09:49;5.60;;;1.40;;
76320;SDS011;65132;52.088;5.402;2023-03-23T10:14:55;5.25;;;0.82;;
76320;SDS011;65132;52.088;5.402;2023-03-23T10:17:29;4.03;;;0.75;;
76320;SDS011;65132;52.088;5.402;2023-03-23T10:22:39;5.50;;;0.65;;
76320;SDS011;65132;52.088;5.402;2023-03-23T10:27:45;5.60;;;0.85;;
76320;SDS011;65132;52.088;5.402;2023-03-23T10:30:24;5.45;;;0.80;;
76320;SDS011;65132;52.088;5.402;2023-03-23T10:33:04;6.90;;;0.77;;
76320;SDS011;65132;52.088;5.402;2023-03-23T10:35:44;6.05;;;0.93;;
76320;SDS011;65132;52.088;5.402;2023-03-23T10:38:23;7.10;;;1.13;;
76320;SDS011;65132;52.088;5.402;2023-03-23T10:40:55;7.47;;;0.93;;
76320;SDS011;65132;52.088;5.402;2023-03-23T10:43:26;4.68;;;0.75;;
76320;SDS011;65132;52.088;5.402;2023-03-23T10:46:08;5.55;;;0.93;;
76320;SDS011;65132;52.088;5.402;2023-03-23T10:48:51;4.18;;;0.95;;
76320;SDS011;65132;52.088;5.402;2023-03-23T10:51:25;3.22;;;0.73;;
76320;SDS011;65132;52.088;5.402;2023-03-23T10:53:58;6.20;;;0.68;;
76320;SDS011;65132;52.088;5.402;2023-03-23T10:56:47;8.80;;;1.00;;
76320;SDS011;65132;52.088;5.402;2023-03-23T10:59:19;7.32;;;1.02;;
76320;SDS011;65132;52.088;5.402;2023-03-23T11:02:10;6.53;;;1.05;;
76320;SDS011;65132;52.088;5.402;2023-03-23T11:04:44;6.97;;;0.57;;
76320;SDS011;65132;52.088;5.402;2023-03-23T11:07:21;6.10;;;0.75;;
76320;SDS011;65132;52.088;5.402;2023-03-23T11:09:53;7.15;;;0.88;;
76320;SDS011;65132;52.088;5.402;2023-03-23T11:12:20;6.93;;;1.58;;
76320;SDS011;65132;52.088;5.402;2023-03-23T11:14:45;6.20;;;1.10;;
76320;SDS011;65132;52.088;5.402;2023-03-23T11:17:29;5.75;;;1.02;;
76320;SDS011;65132;52.088;5.402;2023-03-23T11:19:55;9.00;;;1.73;;
76320;SDS011;65132;52.088;5.402;2023-03-23T11:22:24;6.07;;;0.90;;
76320;SDS011;65132;52.088;5.402;2023-03-23T11:24:54;6.18;;;0.40;;
76320;SDS011;65132;52.088;5.402;2023-03-23T11:27:21;9.00;;;0.80;;
76320;SDS011;65132;52.088;5.402;2023-03-23T11:29:55;3.80;;;0.55;;
76320;SDS011;65132;52.088;5.402;2023-03-23T11:32:26;5.93;;;0.65;;
76320;SDS011;65132;52.088;5.402;2023-03-23T11:34:59;3.97;;;0.77;;
76320;SDS011;65132;52.088;5.402;2023-03-23T11:42:55;7.25;;;1.77;;
76320;SDS011;65132;52.088;5.402;2023-03-23T11:45:33;3.08;;;0.45;;
76320;SDS011;65132;52.088;5.402;2023-03-23T11:53:39;6.00;;;0.55;;
76320;SDS011;65132;52.088;5.402;2023-03-23T11:58:48;4.13;;;1.05;;
76320;SDS011;65132;52.088;5.402;2023-03-23T12:09:58;5.38;;;0.43;;
76320;SDS011;65132;52.088;5.402;2023-03-23T12:12:42;7.53;;;1.30;;
76320;SDS011;65132;52.088;5.402;2023-03-23T12:20:31;4.07;;;1.20;;
76320;SDS011;65132;52.088;5.402;2023-03-23T12:31:40;8.88;;;1.35;;
76320;SDS011;65132;52.088;5.402;2023-03-23T12:37:41;7.47;;;1.13;;
76320;SDS011;65132;52.088;5.402;2023-03-23T12:40:07;8.10;;;0.73;;
76320;SDS011;65132;52.088;5.402;2023-03-23T12:43:05;6.00;;;1.52;;
76320;SDS011;65132;52.088;5.402;2023-03-23T12:53:58;6.82;;;0.90;;
76320;SDS011;65132;52.088;5.402;2023-03-23T12:56:33;4.70;;;0.65;;
76320;SDS011;65132;52.088;5.402;2023-03-23T13:01:45;5.82;;;0.75;;
76320;SDS011;65132;52.088;5.402;2023-03-23T13:04:21;3.15;;;0.60;;
76320;SDS011;65132;52.088;5.402;2023-03-23T13:06:50;4.80;;;0.70;;
76320;SDS011;65132;52.088;5.402;2023-03-23T13:09:24;6.55;;;2.05;;
76320;SDS011;65132;52.088;5.402;2023-03-23T13:12:07;3.92;;;0.70;;
76320;SDS011;65132;52.088;5.402;2023-03-23T13:20:45;5.20;;;1.65;;
76320;SDS011;65132;52.088;5.402;2023-03-23T13:23:48;7.40;;;1.17;;
76320;SDS011;65132;52.088;5.402;2023-03-23T13:26:38;6.60;;;0.90;;
76320;SDS011;65132;52.088;5.402;2023-03-23T13:29:09;7.32;;;1.10;;
76320;SDS011;65132;52.088;5.402;2023-03-23T13:32:05;5.20;;;0.98;;
76320;SDS011;65132;52.088;5.402;2023-03-23T13:34:36;5.68;;;0.77;;
76320;SDS011;65132;52.088;5.402;2023-03-23T13:37:05;2.90;;;0.55;;
76320;SDS011;65132;52.088;5.402;2023-03-23T13:39:36;6.88;;;0.82;;
76320;SDS011;65132;52.088;5.402;2023-03-23T13:42:05;4.68;;;0.55;;
76320;SDS011;65132;52.088;5.402;2023-03-23T13:44:55;4.03;;;1.00;;
76320;SDS011;65132;52.088;5.402;2023-03-23T13:47:41;5.47;;;0.80;;
76320;SDS011;65132;52.088;5.402;2023-03-23T13:50:11;3.75;;;0.93;;
76320;SDS011;65132;52.088;5.402;2023-03-23T13:52:59;4.00;;;0.60;;
76320;SDS011;65132;52.088;5.402;2023-03-23T13:55:31;3.50;;;1.17;;
76320;SDS011;65132;52.088;5.402;2023-03-23T14:05:31;3.55;;;0.70;;
76320;SDS011;65132;52.088;5.402;2023-03-23T14:16:22;6.20;;;0.77;;
76320;SDS011;65132;52.088;5.402;2023-03-23T14:18:53;5.45;;;1.00;;
76320;SDS011;65132;52.088;5.402;2023-03-23T14:26:40;3.92;;;0.80;;
76320;SDS011;65132;52.088;5.402;2023-03-23T14:29:06;5.38;;;0.85;;
76320;SDS011;65132;52.088;5.402;2023-03-23T14:31:34;4.63;;;0.60;;
76320;SDS011;65132;52.088;5.402;2023-03-23T14:34:02;5.35;;;0.95;;
76320;SDS011;65132;52.088;5.402;2023-03-23T14:36:30;5.00;;;1.80;;
76320;SDS011;65132;52.088;5.402;2023-03-23T14:38:59;4.78;;;0.68;;
76320;SDS011;65132;52.088;5.402;2023-03-23T14:41:50;3.30;;;0.75;;
76320;SDS011;65132;52.088;5.402;2023-03-23T14:44:22;6.28;;;0.85;;
76320;SDS011;65132;52.088;5.402;2023-03-23T14:49:23;5.60;;;0.90;;
76320;SDS011;65132;52.088;5.402;2023-03-23T14:52:14;6.20;;;1.10;;
76320;SDS011;65132;52.088;5.402;2023-03-23T14:54:42;6.25;;;1.23;;
76320;SDS011;65132;52.088;5.402;2023-03-23T14:57:25;6.68;;;0.70;;
76320;SDS011;65132;52.088;5.402;2023-03-23T14:59:54;4.18;;;0.50;;
76320;SDS011;65132;52.088;5.402;2023-03-23T15:02:24;5.80;;;0.75;;
76320;SDS011;65132;52.088;5.402;2023-03-23T15:04:55;6.70;;;0.70;;
76320;SDS011;65132;52.088;5.402;2023-03-23T15:07:32;4.22;;;1.00;;
76320;SDS011;65132;52.088;5.402;2023-03-23T15:10:14;5.00;;;0.75;;
76320;SDS011;65132;52.088;5.402;2023-03-23T15:12:43;4.85;;;0.88;;
76320;SDS011;65132;52.088;5.402;2023-03-23T15:15:19;3.35;;;0.65;;
76320;SDS011;65132;52.088;5.402;2023-03-23T15:17:49;5.80;;;0.82;;
76320;SDS011;65132;52.088;5.402;2023-03-23T15:20:25;3.17;;;0.70;;
76320;SDS011;65132;52.088;5.402;2023-03-23T15:23:14;2.83;;;0.77;;
76320;SDS011;65132;52.088;5.402;2023-03-23T15:25:47;2.85;;;0.57;;
76320;SDS011;65132;52.088;5.402;2023-03-23T15:28:18;6.38;;;1.08;;
76320;SDS011;65132;52.088;5.402;2023-03-23T15:30:46;4.80;;;0.65;;
76320;SDS011;65132;52.088;5.402;2023-03-23T15:33:14;4.00;;;0.82;;
76320;SDS011;65132;52.088;5.402;2023-03-23T15:35:40;3.70;;;0.60;;
76320;SDS011;65132;52.088;5.402;2023-03-23T15:40:50;3.78;;;0.60;;
76320;SDS011;65132;52.088;5.402;2023-03-23T15:43:23;5.10;;;0.65;;
76320;SDS011;65132;52.088;5.402;2023-03-23T15:45:59;8.85;;;1.15;;
76320;SDS011;65132;52.088;5.402;2023-03-23T15:48:28;8.25;;;0.63;;
76320;SDS011;65132;52.088;5.402;2023-03-23T15:50:55;5.85;;;1.33;;
76320;SDS011;65132;52.088;5.402;2023-03-23T15:53:31;7.35;;;0.80;;
76320;SDS011;65132;52.088;5.402;2023-03-23T15:56:00;3.67;;;0.73;;
76320;SDS011;65132;52.088;5.402;2023-03-23T15:58:27;4.80;;;1.05;;
76320;SDS011;65132;52.088;5.402;2023-03-23T16:00:57;6.30;;;0.90;;
76320;SDS011;65132;52.088;5.402;2023-03-23T16:03:31;4.90;;;1.10;;
76320;SDS011;65132;52.088;5.402;2023-03-23T16:06:03;5.95;;;1.05;;
76320;SDS011;65132;52.088;5.402;2023-03-23T16:08:30;6.93;;;1.17;;
76320;SDS011;65132;52.088;5.402;2023-03-23T16:10:59;7.05;;;0.80;;
76320;SDS011;65132;52.088;5.402;2023-03-23T16:13:34;4.70;;;1.15;;
76320;SDS011;65132;52.088;5.402;2023-03-23T16:16:03;4.97;;;1.02;;
76320;SDS011;65132;52.088;5.402;2023-03-23T16:18:42;6.57;;;1.58;;
76320;SDS011;65132;52.088;5.402;2023-03-23T16:21:12;6.38;;;1.17;;
76320;SDS011;65132;52.088;5.402;2023-03-23T16:23:38;5.25;;;0.93;;
76320;SDS011;65132;52.088;5.402;2023-03-23T16:26:05;7.25;;;1.00;;
76320;SDS011;65132;52.088;5.402;2023-03-23T16:28:32;3.75;;;1.08;;
76320;SDS011;65132;52.088;5.402;2023-03-23T16:31:05;5.13;;;1.10;;
76320;SDS011;65132;52.088;5.402;2023-03-23T16:33:34;7.47;;;1.30;;
76320;SDS011;65132;52.088;5.402;2023-03-23T16:36:00;7.00;;;1.25;;
76320;SDS011;65132;52.088;5.402;2023-03-23T16:38:27;7.47;;;1.30;;
76320;SDS011;65132;52.088;5.402;2023-03-23T16:40:54;6.13;;;1.55;;
76320;SDS011;65132;52.088;5.402;2023-03-23T16:43:21;9.02;;;1.80;;
76320;SDS011;65132;52.088;5.402;2023-03-23T16:45:50;5.40;;;1.15;;
76320;SDS011;65132;52.088;5.402;2023-03-23T16:48:22;8.60;;;1.35;;
76320;SDS011;65132;52.088;5.402;2023-03-23T16:50:50;4.97;;;1.05;;
76320;SDS011;65132;52.088;5.402;2023-03-23T16:53:18;5.97;;;1.00;;
76320;SDS011;65132;52.088;5.402;2023-03-23T16:55:45;9.90;;;1.73;;
76320;SDS011;65132;52.088;5.402;2023-03-23T16:58:14;5.10;;;1.35;;
76320;SDS011;65132;52.088;5.402;2023-03-23T17:00:46;7.55;;;1.70;;
76320;SDS011;65132;52.088;5.402;2023-03-23T17:03:16;4.63;;;1.15;;
76320;SDS011;65132;52.088;5.402;2023-03-23T17:05:44;4.03;;;0.80;;
76320;SDS011;65132;52.088;5.402;2023-03-23T17:08:16;6.75;;;0.93;;
76320;SDS011;65132;52.088;5.402;2023-03-23T17:10:52;8.48;;;1.27;;
76320;SDS011;65132;52.088;5.402;2023-03-23T17:13:27;6.55;;;1.35;;
76320;SDS011;65132;52.088;5.402;2023-03-23T17:16:05;3.08;;;0.82;;
76320;SDS011;65132;52.088;5.402;2023-03-23T17:18:33;3.80;;;0.90;;
76320;SDS011;65132;52.088;5.402;2023-03-23T17:21:02;5.20;;;0.80;;
76320;SDS011;65132;52.088;5.402;2023-03-23T17:23:29;4.30;;;0.90;;
76320;SDS011;65132;52.088;5.402;2023-03-23T17:26:00;6.40;;;1.10;;
76320;SDS011;65132;52.088;5.402;2023-03-23T17:28:26;5.68;;;1.08;;
76320;SDS011;65132;52.088;5.402;2023-03-23T17:30:53;10.02;;;1.13;;
76320;SDS011;65132;52.088;5.402;2023-03-23T17:33:21;6.50;;;1.33;;
76320;SDS011;65132;52.088;5.402;2023-03-23T17:35:48;3.72;;;1.17;;
76320;SDS011;65132;52.088;5.402;2023-03-23T17:38:17;5.18;;;1.13;;
76320;SDS011;65132;52.088;5.402;2023-03-23T17:40:47;5.57;;;0.93;;
76320;SDS011;65132;52.088;5.402;2023-03-23T17:43:20;5.72;;;1.08;;
76320;SDS011;65132;52.088;5.402;2023-03-23T17:45:49;3.85;;;0.68;;
76320;SDS011;65132;52.088;5.402;2023-03-23T17:48:21;5.15;;;1.08;;
76320;SDS011;65132;52.088;5.402;2023-03-23T17:50:48;3.42;;;0.52;;
76320;SDS011;65132;52.088;5.402;2023-03-23T17:58:43;3.88;;;0.75;;
76320;SDS011;65132;52.088;5.402;2023-03-23T18:01:10;4.47;;;0.88;;
76320;SDS011;65132;52.088;5.402;2023-03-23T18:03:39;3.80;;;0.52;;
76320;SDS011;65132;52.088;5.402;2023-03-23T18:06:10;6.00;;;0.90;;
76320;SDS011;65132;52.088;5.402;2023-03-23T18:08:40;3.33;;;0.88;;
76320;SDS011;65132;52.088;5.402;2023-03-23T18:11:07;2.50;;;0.65;;
76320;SDS011;65132;52.088;5.402;2023-03-23T18:13:42;7.10;;;1.60;;
76320;SDS011;65132;52.088;5.402;2023-03-23T18:16:08;5.20;;;1.13;;
76320;SDS011;65132;52.088;5.402;2023-03-23T18:18:36;6.00;;;1.17;;
76320;SDS011;65132;52.088;5.402;2023-03-23T18:21:08;4.80;;;1.42;;
76320;SDS011;65132;52.088;5.402;2023-03-23T18:23:37;3.92;;;0.98;;
76320;SDS011;65132;52.088;5.402;2023-03-23T18:26:14;5.10;;;0.80;;
76320;SDS011;65132;52.088;5.402;2023-03-23T18:28:46;4.93;;;0.93;;